sensor_id;sensor_type;location;lat;lon;timestamp;temperature;humidity
44900;DHT22;30628;51.188;6.770;2023-05-28T00:00:25;18.30;99.90
44900;DHT22;30628;51.188;6.770;2023-05-28T00:02:53;18.30;99.90
44900;DHT22;30628;51.188;6.770;2023-05-28T00:05:19;18.30;99.90
44900;DHT22;30628;51.188;6.770;2023-05-28T00:07:45;18.20;99.90
44900;DHT22;30628;51.188;6.770;2023-05-28T00:10:11;18.20;99.90
44900;DHT22;30628;51.188;6.770;2023-05-28T00:12:38;18.20;99.90
44900;DHT22;30628;51.188;6.770;2023-05-28T00:15:04;18.00;99.90
44900;DHT22;30628;51.188;6.770;2023-05-28T00:17:31;18.00;99.90
44900;DHT22;30628;51.188;6.770;2023-05-28T00:19:58;17.90;99.90
44900;DHT22;30628;51.188;6.770;2023-05-28T00:22:24;17.70;99.90
44900;DHT22;30628;51.188;6.770;2023-05-28T00:24:51;17.70;99.90
44900;DHT22;30628;51.188;6.770;2023-05-28T00:27:17;17.60;99.90
44900;DHT22;30628;51.188;6.770;2023-05-28T00:29:43;17.70;99.90
44900;DHT22;30628;51.188;6.770;2023-05-28T00:32:09;17.60;99.90
44900;DHT22;30628;51.188;6.770;2023-05-28T00:34:35;17.60;99.90
44900;DHT22;30628;51.188;6.770;2023-05-28T00:37:02;17.40;99.90
44900;DHT22;30628;51.188;6.770;2023-05-28T00:39:28;17.20;99.90
44900;DHT22;30628;51.188;6.770;2023-05-28T00:42:04;16.90;99.90
44900;DHT22;30628;51.188;6.770;2023-05-28T00:44:30;16.80;99.90
44900;DHT22;30628;51.188;6.770;2023-05-28T00:47:00;16.90;99.90
44900;DHT22;30628;51.188;6.770;2023-05-28T00:49:28;17.00;99.90
44900;DHT22;30628;51.188;6.770;2023-05-28T00:51:55;16.90;99.90
44900;DHT22;30628;51.188;6.770;2023-05-28T00:54:23;16.90;99.90
44900;DHT22;30628;51.188;6.770;2023-05-28T00:56:49;16.80;99.90
44900;DHT22;30628;51.188;6.770;2023-05-28T00:59:17;16.70;99.90
44900;DHT22;30628;51.188;6.770;2023-05-28T01:01:43;16.60;99.90
44900;DHT22;30628;51.188;6.770;2023-05-28T01:07:07;16.40;99.90
44900;DHT22;30628;51.188;6.770;2023-05-28T01:09:33;16.30;99.90
44900;DHT22;30628;51.188;6.770;2023-05-28T01:12:00;16.40;99.90
44900;DHT22;30628;51.188;6.770;2023-05-28T01:14:28;16.60;99.90
44900;DHT22;30628;51.188;6.770;2023-05-28T01:16:56;16.70;99.90
44900;DHT22;30628;51.188;6.770;2023-05-28T01:19:24;16.60;99.90
44900;DHT22;30628;51.188;6.770;2023-05-28T01:21:57;16.70;99.90
44900;DHT22;30628;51.188;6.770;2023-05-28T01:24:24;16.90;99.90
44900;DHT22;30628;51.188;6.770;2023-05-28T01:26:51;17.00;99.90
44900;DHT22;30628;51.188;6.770;2023-05-28T01:29:18;17.00;99.90
44900;DHT22;30628;51.188;6.770;2023-05-28T01:31:45;16.90;99.90
44900;DHT22;30628;51.188;6.770;2023-05-28T01:34:19;16.80;99.90
44900;DHT22;30628;51.188;6.770;2023-05-28T01:36:54;16.60;99.90
44900;DHT22;30628;51.188;6.770;2023-05-28T01:39:25;16.60;99.90
44900;DHT22;30628;51.188;6.770;2023-05-28T01:41:53;16.70;99.90
44900;DHT22;30628;51.188;6.770;2023-05-28T01:44:19;16.80;99.90
44900;DHT22;30628;51.188;6.770;2023-05-28T01:46:46;16.80;99.90
44900;DHT22;30628;51.188;6.770;2023-05-28T01:49:14;16.80;99.90
44900;DHT22;30628;51.188;6.770;2023-05-28T01:51:41;16.70;99.90
44900;DHT22;30628;51.188;6.770;2023-05-28T01:54:07;16.60;99.90
44900;DHT22;30628;51.188;6.770;2023-05-28T01:56:33;16.70;99.90
44900;DHT22;30628;51.188;6.770;2023-05-28T01:58:59;16.60;99.90
44900;DHT22;30628;51.188;6.770;2023-05-28T02:01:28;16.80;99.90
44900;DHT22;30628;51.188;6.770;2023-05-28T02:03:55;17.00;99.90
44900;DHT22;30628;51.188;6.770;2023-05-28T02:06:22;17.10;99.90
44900;DHT22;30628;51.188;6.770;2023-05-28T02:08:49;17.30;99.90
44900;DHT22;30628;51.188;6.770;2023-05-28T02:11:15;17.30;99.90
44900;DHT22;30628;51.188;6.770;2023-05-28T02:13:41;17.20;99.90
44900;DHT22;30628;51.188;6.770;2023-05-28T02:16:08;17.10;99.90
44900;DHT22;30628;51.188;6.770;2023-05-28T02:18:37;17.20;99.90
44900;DHT22;30628;51.188;6.770;2023-05-28T02:21:03;17.20;99.90
44900;DHT22;30628;51.188;6.770;2023-05-28T02:23:30;17.30;99.90
44900;DHT22;30628;51.188;6.770;2023-05-28T02:25:56;17.30;99.90
44900;DHT22;30628;51.188;6.770;2023-05-28T02:28:22;17.40;99.90
44900;DHT22;30628;51.188;6.770;2023-05-28T02:30:48;17.50;99.90
44900;DHT22;30628;51.188;6.770;2023-05-28T02:33:14;17.30;99.90
44900;DHT22;30628;51.188;6.770;2023-05-28T02:35:41;17.30;99.90
44900;DHT22;30628;51.188;6.770;2023-05-28T02:38:07;17.30;99.90
44900;DHT22;30628;51.188;6.770;2023-05-28T02:40:34;17.20;99.90
44900;DHT22;30628;51.188;6.770;2023-05-28T02:43:00;17.20;99.90
44900;DHT22;30628;51.188;6.770;2023-05-28T02:45:26;17.10;99.90
44900;DHT22;30628;51.188;6.770;2023-05-28T02:47:52;16.90;99.90
44900;DHT22;30628;51.188;6.770;2023-05-28T02:50:18;16.90;99.90
44900;DHT22;30628;51.188;6.770;2023-05-28T02:52:45;16.90;99.90
44900;DHT22;30628;51.188;6.770;2023-05-28T02:55:11;16.90;99.90
44900;DHT22;30628;51.188;6.770;2023-05-28T02:57:37;16.90;99.90
44900;DHT22;30628;51.188;6.770;2023-05-28T03:00:03;16.80;99.90
44900;DHT22;30628;51.188;6.770;2023-05-28T03:02:30;16.70;99.90
44900;DHT22;30628;51.188;6.770;2023-05-28T03:05:34;16.70;99.90
44900;DHT22;30628;51.188;6.770;2023-05-28T03:08:01;16.80;99.90
44900;DHT22;30628;51.188;6.770;2023-05-28T03:10:27;16.90;99.90
44900;DHT22;30628;51.188;6.770;2023-05-28T03:12:53;16.90;99.90
44900;DHT22;30628;51.188;6.770;2023-05-28T03:15:19;16.90;99.90
44900;DHT22;30628;51.188;6.770;2023-05-28T03:17:45;16.90;99.90
44900;DHT22;30628;51.188;6.770;2023-05-28T03:20:11;16.80;99.90
44900;DHT22;30628;51.188;6.770;2023-05-28T03:22:38;16.90;99.90
44900;DHT22;30628;51.188;6.770;2023-05-28T03:25:05;16.80;99.90
44900;DHT22;30628;51.188;6.770;2023-05-28T03:27:32;16.90;99.90
44900;DHT22;30628;51.188;6.770;2023-05-28T03:29:58;16.90;99.90
44900;DHT22;30628;51.188;6.770;2023-05-28T03:32:24;17.00;99.90
44900;DHT22;30628;51.188;6.770;2023-05-28T03:34:50;17.00;99.90
44900;DHT22;30628;51.188;6.770;2023-05-28T03:37:16;16.90;99.90
44900;DHT22;30628;51.188;6.770;2023-05-28T03:39:43;16.80;99.90
44900;DHT22;30628;51.188;6.770;2023-05-28T03:42:09;16.80;99.90
44900;DHT22;30628;51.188;6.770;2023-05-28T03:44:36;16.90;99.90
44900;DHT22;30628;51.188;6.770;2023-05-28T03:47:02;16.80;99.90
44900;DHT22;30628;51.188;6.770;2023-05-28T03:49:28;16.80;99.90
44900;DHT22;30628;51.188;6.770;2023-05-28T03:51:54;16.90;99.90
44900;DHT22;30628;51.188;6.770;2023-05-28T03:54:20;16.90;99.90
44900;DHT22;30628;51.188;6.770;2023-05-28T03:56:46;16.90;99.90
44900;DHT22;30628;51.188;6.770;2023-05-28T03:59:12;16.90;99.90
44900;DHT22;30628;51.188;6.770;2023-05-28T04:01:38;16.90;99.90
44900;DHT22;30628;51.188;6.770;2023-05-28T04:04:05;16.80;99.90
44900;DHT22;30628;51.188;6.770;2023-05-28T04:06:31;16.60;99.90
44900;DHT22;30628;51.188;6.770;2023-05-28T04:08:59;16.20;99.90
44900;DHT22;30628;51.188;6.770;2023-05-28T04:11:25;16.10;99.90
44900;DHT22;30628;51.188;6.770;2023-05-28T04:13:55;16.30;99.90
44900;DHT22;30628;51.188;6.770;2023-05-28T04:16:22;16.30;99.90
44900;DHT22;30628;51.188;6.770;2023-05-28T04:18:49;16.50;99.90
44900;DHT22;30628;51.188;6.770;2023-05-28T04:21:15;16.20;99.90
44900;DHT22;30628;51.188;6.770;2023-05-28T04:23:41;16.20;99.90
44900;DHT22;30628;51.188;6.770;2023-05-28T04:26:07;16.40;99.90
44900;DHT22;30628;51.188;6.770;2023-05-28T04:28:34;16.40;99.90
44900;DHT22;30628;51.188;6.770;2023-05-28T04:31:00;16.40;99.90
44900;DHT22;30628;51.188;6.770;2023-05-28T04:33:27;16.60;99.90
44900;DHT22;30628;51.188;6.770;2023-05-28T04:36:00;16.70;99.90
44900;DHT22;30628;51.188;6.770;2023-05-28T04:38:27;16.80;99.90
44900;DHT22;30628;51.188;6.770;2023-05-28T04:40:59;16.90;99.90
44900;DHT22;30628;51.188;6.770;2023-05-28T04:43:31;17.00;99.90
44900;DHT22;30628;51.188;6.770;2023-05-28T04:45:57;17.00;99.90
44900;DHT22;30628;51.188;6.770;2023-05-28T04:48:25;17.00;99.90
44900;DHT22;30628;51.188;6.770;2023-05-28T04:50:52;17.00;99.90
44900;DHT22;30628;51.188;6.770;2023-05-28T04:53:18;17.00;99.90
44900;DHT22;30628;51.188;6.770;2023-05-28T04:55:44;17.00;99.90
44900;DHT22;30628;51.188;6.770;2023-05-28T04:58:10;17.00;99.90
44900;DHT22;30628;51.188;6.770;2023-05-28T05:00:36;17.10;99.90
44900;DHT22;30628;51.188;6.770;2023-05-28T05:03:03;17.00;99.90
44900;DHT22;30628;51.188;6.770;2023-05-28T05:05:29;17.00;99.90
44900;DHT22;30628;51.188;6.770;2023-05-28T05:07:56;16.90;99.90
44900;DHT22;30628;51.188;6.770;2023-05-28T05:10:22;17.10;99.90
44900;DHT22;30628;51.188;6.770;2023-05-28T05:12:48;17.30;99.90
44900;DHT22;30628;51.188;6.770;2023-05-28T05:15:14;17.30;99.90
44900;DHT22;30628;51.188;6.770;2023-05-28T05:17:41;17.40;99.90
44900;DHT22;30628;51.188;6.770;2023-05-28T05:20:07;17.40;99.90
44900;DHT22;30628;51.188;6.770;2023-05-28T05:22:34;17.50;99.90
44900;DHT22;30628;51.188;6.770;2023-05-28T05:25:00;17.60;99.90
44900;DHT22;30628;51.188;6.770;2023-05-28T05:27:27;17.60;99.90
44900;DHT22;30628;51.188;6.770;2023-05-28T05:29:54;17.60;99.90
44900;DHT22;30628;51.188;6.770;2023-05-28T05:32:20;17.80;99.90
44900;DHT22;30628;51.188;6.770;2023-05-28T05:34:46;17.80;99.90
44900;DHT22;30628;51.188;6.770;2023-05-28T05:37:12;17.90;99.90
44900;DHT22;30628;51.188;6.770;2023-05-28T05:39:38;18.10;99.90
44900;DHT22;30628;51.188;6.770;2023-05-28T05:42:05;18.20;99.90
44900;DHT22;30628;51.188;6.770;2023-05-28T05:44:31;18.20;99.90
44900;DHT22;30628;51.188;6.770;2023-05-28T05:46:57;18.20;99.90
44900;DHT22;30628;51.188;6.770;2023-05-28T05:49:23;18.30;99.90
44900;DHT22;30628;51.188;6.770;2023-05-28T05:51:49;18.20;99.90
44900;DHT22;30628;51.188;6.770;2023-05-28T05:54:16;18.30;99.90
44900;DHT22;30628;51.188;6.770;2023-05-28T05:56:42;18.40;99.90
44900;DHT22;30628;51.188;6.770;2023-05-28T05:59:09;18.50;99.90
44900;DHT22;30628;51.188;6.770;2023-05-28T06:01:35;18.60;99.90
44900;DHT22;30628;51.188;6.770;2023-05-28T06:04:01;18.80;99.90
44900;DHT22;30628;51.188;6.770;2023-05-28T06:06:27;18.90;99.90
44900;DHT22;30628;51.188;6.770;2023-05-28T06:08:54;19.00;99.90
44900;DHT22;30628;51.188;6.770;2023-05-28T06:11:20;19.00;99.90
44900;DHT22;30628;51.188;6.770;2023-05-28T06:13:49;19.10;99.90
44900;DHT22;30628;51.188;6.770;2023-05-28T06:16:16;19.20;99.90
44900;DHT22;30628;51.188;6.770;2023-05-28T06:18:43;19.10;99.90
44900;DHT22;30628;51.188;6.770;2023-05-28T06:21:09;19.10;99.90
44900;DHT22;30628;51.188;6.770;2023-05-28T06:23:36;19.10;99.90
44900;DHT22;30628;51.188;6.770;2023-05-28T06:26:03;19.40;99.90
44900;DHT22;30628;51.188;6.770;2023-05-28T06:28:29;19.40;99.90
44900;DHT22;30628;51.188;6.770;2023-05-28T06:30:55;19.40;99.90
44900;DHT22;30628;51.188;6.770;2023-05-28T06:33:22;19.60;99.90
44900;DHT22;30628;51.188;6.770;2023-05-28T06:35:48;19.70;99.90
44900;DHT22;30628;51.188;6.770;2023-05-28T06:38:14;19.80;99.90
44900;DHT22;30628;51.188;6.770;2023-05-28T06:40:40;19.90;99.90
44900;DHT22;30628;51.188;6.770;2023-05-28T06:43:07;19.90;99.90
44900;DHT22;30628;51.188;6.770;2023-05-28T06:45:33;20.00;99.90
44900;DHT22;30628;51.188;6.770;2023-05-28T06:47:59;20.20;99.90
44900;DHT22;30628;51.188;6.770;2023-05-28T06:50:26;20.20;99.90
44900;DHT22;30628;51.188;6.770;2023-05-28T06:52:52;20.40;99.90
44900;DHT22;30628;51.188;6.770;2023-05-28T06:55:18;20.50;99.90
44900;DHT22;30628;51.188;6.770;2023-05-28T06:57:44;20.60;99.90
44900;DHT22;30628;51.188;6.770;2023-05-28T07:00:11;20.50;99.90
44900;DHT22;30628;51.188;6.770;2023-05-28T07:02:40;20.60;99.90
44900;DHT22;30628;51.188;6.770;2023-05-28T07:05:15;20.70;99.90
44900;DHT22;30628;51.188;6.770;2023-05-28T07:07:41;20.70;99.90
44900;DHT22;30628;51.188;6.770;2023-05-28T07:10:07;20.60;99.90
44900;DHT22;30628;51.188;6.770;2023-05-28T07:12:34;20.70;99.90
44900;DHT22;30628;51.188;6.770;2023-05-28T07:15:02;20.70;99.90
44900;DHT22;30628;51.188;6.770;2023-05-28T07:17:29;20.80;99.90
44900;DHT22;30628;51.188;6.770;2023-05-28T07:19:55;20.80;99.90
44900;DHT22;30628;51.188;6.770;2023-05-28T07:22:21;20.90;99.90
44900;DHT22;30628;51.188;6.770;2023-05-28T07:24:47;21.00;99.90
44900;DHT22;30628;51.188;6.770;2023-05-28T07:27:13;21.00;99.90
44900;DHT22;30628;51.188;6.770;2023-05-28T07:29:39;21.00;99.90
44900;DHT22;30628;51.188;6.770;2023-05-28T07:32:06;21.10;99.90
44900;DHT22;30628;51.188;6.770;2023-05-28T07:34:32;21.10;99.90
44900;DHT22;30628;51.188;6.770;2023-05-28T07:36:58;21.30;99.90
44900;DHT22;30628;51.188;6.770;2023-05-28T07:39:24;21.30;99.90
44900;DHT22;30628;51.188;6.770;2023-05-28T07:41:51;21.30;99.90
44900;DHT22;30628;51.188;6.770;2023-05-28T07:44:17;21.30;99.90
44900;DHT22;30628;51.188;6.770;2023-05-28T07:46:43;21.40;99.90
44900;DHT22;30628;51.188;6.770;2023-05-28T07:49:09;21.50;99.90
44900;DHT22;30628;51.188;6.770;2023-05-28T07:51:35;21.50;99.90
44900;DHT22;30628;51.188;6.770;2023-05-28T07:54:02;21.50;99.90
44900;DHT22;30628;51.188;6.770;2023-05-28T07:56:28;21.70;99.90
44900;DHT22;30628;51.188;6.770;2023-05-28T07:58:55;21.70;99.90
44900;DHT22;30628;51.188;6.770;2023-05-28T08:01:21;21.70;99.70
44900;DHT22;30628;51.188;6.770;2023-05-28T08:03:47;21.80;99.90
44900;DHT22;30628;51.188;6.770;2023-05-28T08:06:25;21.80;99.80
44900;DHT22;30628;51.188;6.770;2023-05-28T08:08:52;21.90;99.90
44900;DHT22;30628;51.188;6.770;2023-05-28T08:11:18;22.00;99.70
44900;DHT22;30628;51.188;6.770;2023-05-28T08:13:44;22.10;98.80
44900;DHT22;30628;51.188;6.770;2023-05-28T08:16:11;22.30;99.10
44900;DHT22;30628;51.188;6.770;2023-05-28T08:18:38;22.30;99.20
44900;DHT22;30628;51.188;6.770;2023-05-28T08:21:06;22.30;98.00
44900;DHT22;30628;51.188;6.770;2023-05-28T08:23:33;22.50;98.10
44900;DHT22;30628;51.188;6.770;2023-05-28T08:26:04;22.50;97.20
44900;DHT22;30628;51.188;6.770;2023-05-28T08:28:30;22.70;96.90
44900;DHT22;30628;51.188;6.770;2023-05-28T08:30:56;22.70;96.70
44900;DHT22;30628;51.188;6.770;2023-05-28T08:33:23;22.80;96.90
44900;DHT22;30628;51.188;6.770;2023-05-28T08:35:49;22.80;96.70
44900;DHT22;30628;51.188;6.770;2023-05-28T08:38:16;22.90;97.20
44900;DHT22;30628;51.188;6.770;2023-05-28T08:40:48;23.00;96.90
44900;DHT22;30628;51.188;6.770;2023-05-28T08:43:15;23.10;97.40
44900;DHT22;30628;51.188;6.770;2023-05-28T08:45:41;23.10;97.30
44900;DHT22;30628;51.188;6.770;2023-05-28T08:48:07;23.10;97.40
44900;DHT22;30628;51.188;6.770;2023-05-28T08:50:36;23.30;98.10
44900;DHT22;30628;51.188;6.770;2023-05-28T08:53:05;23.30;96.80
44900;DHT22;30628;51.188;6.770;2023-05-28T08:55:34;23.40;97.50
44900;DHT22;30628;51.188;6.770;2023-05-28T08:58:01;23.50;98.30
44900;DHT22;30628;51.188;6.770;2023-05-28T09:00:28;23.50;96.90
44900;DHT22;30628;51.188;6.770;2023-05-28T09:02:54;23.50;98.50
44900;DHT22;30628;51.188;6.770;2023-05-28T09:05:20;23.50;97.10
44900;DHT22;30628;51.188;6.770;2023-05-28T09:07:46;23.50;97.40
44900;DHT22;30628;51.188;6.770;2023-05-28T09:10:13;23.40;96.70
44900;DHT22;30628;51.188;6.770;2023-05-28T09:12:39;23.50;97.30
44900;DHT22;30628;51.188;6.770;2023-05-28T09:15:07;23.60;97.40
44900;DHT22;30628;51.188;6.770;2023-05-28T09:17:35;23.70;97.60
44900;DHT22;30628;51.188;6.770;2023-05-28T09:20:11;23.70;96.30
44900;DHT22;30628;51.188;6.770;2023-05-28T09:22:56;23.60;96.60
44900;DHT22;30628;51.188;6.770;2023-05-28T09:25:23;23.70;97.50
44900;DHT22;30628;51.188;6.770;2023-05-28T09:27:50;23.80;96.80
44900;DHT22;30628;51.188;6.770;2023-05-28T09:30:18;23.80;96.50
44900;DHT22;30628;51.188;6.770;2023-05-28T09:32:45;23.70;97.50
44900;DHT22;30628;51.188;6.770;2023-05-28T09:35:11;23.90;96.90
44900;DHT22;30628;51.188;6.770;2023-05-28T09:37:37;23.80;96.70
44900;DHT22;30628;51.188;6.770;2023-05-28T09:40:05;23.90;97.00
44900;DHT22;30628;51.188;6.770;2023-05-28T09:42:39;24.10;97.40
44900;DHT22;30628;51.188;6.770;2023-05-28T09:45:08;24.20;97.80
44900;DHT22;30628;51.188;6.770;2023-05-28T09:47:43;24.30;96.90
44900;DHT22;30628;51.188;6.770;2023-05-28T09:50:10;24.40;97.70
44900;DHT22;30628;51.188;6.770;2023-05-28T09:52:44;24.60;97.80
44900;DHT22;30628;51.188;6.770;2023-05-28T09:55:14;24.50;95.70
44900;DHT22;30628;51.188;6.770;2023-05-28T09:57:51;24.40;96.30
44900;DHT22;30628;51.188;6.770;2023-05-28T10:00:25;24.00;95.40
44900;DHT22;30628;51.188;6.770;2023-05-28T10:06:03;24.00;96.50
44900;DHT22;30628;51.188;6.770;2023-05-28T10:08:33;24.20;96.60
44900;DHT22;30628;51.188;6.770;2023-05-28T10:11:09;24.40;96.80
44900;DHT22;30628;51.188;6.770;2023-05-28T10:13:35;24.40;95.50
44900;DHT22;30628;51.188;6.770;2023-05-28T10:16:01;24.00;93.90
44900;DHT22;30628;51.188;6.770;2023-05-28T10:18:28;24.20;97.20
44900;DHT22;30628;51.188;6.770;2023-05-28T10:20:56;24.20;96.40
44900;DHT22;30628;51.188;6.770;2023-05-28T10:23:24;24.20;95.40
44900;DHT22;30628;51.188;6.770;2023-05-28T10:25:51;24.30;95.80
44900;DHT22;30628;51.188;6.770;2023-05-28T10:28:28;24.40;97.20
44900;DHT22;30628;51.188;6.770;2023-05-28T10:31:05;24.50;95.70
44900;DHT22;30628;51.188;6.770;2023-05-28T10:33:37;24.50;95.50
44900;DHT22;30628;51.188;6.770;2023-05-28T10:36:03;24.50;95.00
44900;DHT22;30628;51.188;6.770;2023-05-28T10:38:44;24.60;94.50
44900;DHT22;30628;51.188;6.770;2023-05-28T10:41:33;24.60;94.50
44900;DHT22;30628;51.188;6.770;2023-05-28T10:44:07;24.80;95.50
44900;DHT22;30628;51.188;6.770;2023-05-28T10:46:37;24.50;94.50
44900;DHT22;30628;51.188;6.770;2023-05-28T10:49:14;24.60;97.90
44900;DHT22;30628;51.188;6.770;2023-05-28T10:51:58;24.60;95.40
44900;DHT22;30628;51.188;6.770;2023-05-28T10:59:58;24.40;95.00
44900;DHT22;30628;51.188;6.770;2023-05-28T11:02:25;24.50;93.50
44900;DHT22;30628;51.188;6.770;2023-05-28T11:04:56;24.50;96.50
44900;DHT22;30628;51.188;6.770;2023-05-28T11:07:33;24.50;93.90
44900;DHT22;30628;51.188;6.770;2023-05-28T11:10:00;24.40;92.70
44900;DHT22;30628;51.188;6.770;2023-05-28T11:12:29;24.40;93.10
44900;DHT22;30628;51.188;6.770;2023-05-28T11:14:55;24.50;98.30
44900;DHT22;30628;51.188;6.770;2023-05-28T11:17:22;24.80;99.90
44900;DHT22;30628;51.188;6.770;2023-05-28T11:19:49;24.70;95.10
44900;DHT22;30628;51.188;6.770;2023-05-28T11:22:17;24.70;96.60
44900;DHT22;30628;51.188;6.770;2023-05-28T11:25:06;24.60;93.90
44900;DHT22;30628;51.188;6.770;2023-05-28T11:27:33;24.70;97.30
44900;DHT22;30628;51.188;6.770;2023-05-28T11:30:07;24.70;95.10
44900;DHT22;30628;51.188;6.770;2023-05-28T11:32:34;24.60;93.90
44900;DHT22;30628;51.188;6.770;2023-05-28T11:35:01;24.60;93.90
44900;DHT22;30628;51.188;6.770;2023-05-28T11:37:30;25.00;96.80
44900;DHT22;30628;51.188;6.770;2023-05-28T11:39:59;25.20;94.90
44900;DHT22;30628;51.188;6.770;2023-05-28T11:42:27;25.20;94.00
44900;DHT22;30628;51.188;6.770;2023-05-28T11:44:54;25.00;95.20
44900;DHT22;30628;51.188;6.770;2023-05-28T11:47:21;25.10;93.70
44900;DHT22;30628;51.188;6.770;2023-05-28T11:49:47;25.30;94.70
44900;DHT22;30628;51.188;6.770;2023-05-28T11:52:23;25.30;94.60
44900;DHT22;30628;51.188;6.770;2023-05-28T11:55:08;25.30;94.60
44900;DHT22;30628;51.188;6.770;2023-05-28T11:57:35;25.40;95.00
44900;DHT22;30628;51.188;6.770;2023-05-28T12:02:53;25.40;94.50
44900;DHT22;30628;51.188;6.770;2023-05-28T12:05:20;25.50;95.40
44900;DHT22;30628;51.188;6.770;2023-05-28T12:07:48;25.50;94.20
44900;DHT22;30628;51.188;6.770;2023-05-28T12:10:34;25.50;95.30
44900;DHT22;30628;51.188;6.770;2023-05-28T12:13:00;25.60;94.70
44900;DHT22;30628;51.188;6.770;2023-05-28T12:15:28;25.50;94.60
44900;DHT22;30628;51.188;6.770;2023-05-28T12:18:00;25.50;94.40
44900;DHT22;30628;51.188;6.770;2023-05-28T12:26:09;25.30;93.90
44900;DHT22;30628;51.188;6.770;2023-05-28T12:28:35;25.30;93.50
44900;DHT22;30628;51.188;6.770;2023-05-28T12:31:06;25.20;93.30
44900;DHT22;30628;51.188;6.770;2023-05-28T12:33:32;24.90;92.20
44900;DHT22;30628;51.188;6.770;2023-05-28T12:35:58;24.90;93.30
44900;DHT22;30628;51.188;6.770;2023-05-28T12:38:26;25.10;93.80
44900;DHT22;30628;51.188;6.770;2023-05-28T12:40:53;25.10;93.80
44900;DHT22;30628;51.188;6.770;2023-05-28T12:43:19;25.10;93.70
44900;DHT22;30628;51.188;6.770;2023-05-28T12:45:46;25.20;94.40
44900;DHT22;30628;51.188;6.770;2023-05-28T12:48:12;25.20;94.70
44900;DHT22;30628;51.188;6.770;2023-05-28T12:50:38;25.20;95.00
44900;DHT22;30628;51.188;6.770;2023-05-28T12:53:05;25.20;93.30
44900;DHT22;30628;51.188;6.770;2023-05-28T12:55:31;25.20;94.60
44900;DHT22;30628;51.188;6.770;2023-05-28T12:57:58;25.10;94.20
44900;DHT22;30628;51.188;6.770;2023-05-28T13:00:24;25.20;94.50
44900;DHT22;30628;51.188;6.770;2023-05-28T13:02:50;25.10;95.60
44900;DHT22;30628;51.188;6.770;2023-05-28T13:05:16;25.10;95.60
44900;DHT22;30628;51.188;6.770;2023-05-28T13:07:43;25.10;94.10
44900;DHT22;30628;51.188;6.770;2023-05-28T13:10:11;24.80;94.60
44900;DHT22;30628;51.188;6.770;2023-05-28T13:12:37;25.00;94.30
44900;DHT22;30628;51.188;6.770;2023-05-28T13:15:05;25.00;94.40
44900;DHT22;30628;51.188;6.770;2023-05-28T13:17:32;24.80;93.50
44900;DHT22;30628;51.188;6.770;2023-05-28T13:19:58;24.90;93.80
44900;DHT22;30628;51.188;6.770;2023-05-28T13:22:24;24.90;94.00
44900;DHT22;30628;51.188;6.770;2023-05-28T13:24:51;25.20;94.10
44900;DHT22;30628;51.188;6.770;2023-05-28T13:27:17;25.10;94.40
44900;DHT22;30628;51.188;6.770;2023-05-28T13:29:43;25.00;94.30
44900;DHT22;30628;51.188;6.770;2023-05-28T13:32:09;25.00;94.50
44900;DHT22;30628;51.188;6.770;2023-05-28T13:34:37;24.90;93.30
44900;DHT22;30628;51.188;6.770;2023-05-28T13:37:03;24.70;93.70
44900;DHT22;30628;51.188;6.770;2023-05-28T13:39:30;24.90;94.90
44900;DHT22;30628;51.188;6.770;2023-05-28T13:41:56;25.10;94.90
44900;DHT22;30628;51.188;6.770;2023-05-28T13:44:23;25.10;94.10
44900;DHT22;30628;51.188;6.770;2023-05-28T13:46:59;25.20;94.00
44900;DHT22;30628;51.188;6.770;2023-05-28T13:49:26;25.20;93.80
44900;DHT22;30628;51.188;6.770;2023-05-28T13:51:52;25.20;94.10
44900;DHT22;30628;51.188;6.770;2023-05-28T13:54:18;25.00;94.10
44900;DHT22;30628;51.188;6.770;2023-05-28T13:56:56;25.10;94.90
44900;DHT22;30628;51.188;6.770;2023-05-28T13:59:22;25.10;94.60
44900;DHT22;30628;51.188;6.770;2023-05-28T14:01:48;25.10;93.40
44900;DHT22;30628;51.188;6.770;2023-05-28T14:04:14;24.80;92.50
44900;DHT22;30628;51.188;6.770;2023-05-28T14:06:41;24.80;93.70
44900;DHT22;30628;51.188;6.770;2023-05-28T14:09:07;24.70;93.30
44900;DHT22;30628;51.188;6.770;2023-05-28T14:11:34;24.80;93.50
44900;DHT22;30628;51.188;6.770;2023-05-28T14:14:00;24.60;92.60
44900;DHT22;30628;51.188;6.770;2023-05-28T14:16:26;24.60;93.10
44900;DHT22;30628;51.188;6.770;2023-05-28T14:18:52;24.60;92.70
44900;DHT22;30628;51.188;6.770;2023-05-28T14:21:18;24.50;93.60
44900;DHT22;30628;51.188;6.770;2023-05-28T14:23:45;24.60;94.90
44900;DHT22;30628;51.188;6.770;2023-05-28T14:26:11;24.60;93.70
44900;DHT22;30628;51.188;6.770;2023-05-28T14:28:37;24.50;93.30
44900;DHT22;30628;51.188;6.770;2023-05-28T14:31:04;24.40;93.80
44900;DHT22;30628;51.188;6.770;2023-05-28T14:33:30;24.40;93.40
44900;DHT22;30628;51.188;6.770;2023-05-28T14:35:57;24.40;93.60
44900;DHT22;30628;51.188;6.770;2023-05-28T14:38:23;24.40;93.40
44900;DHT22;30628;51.188;6.770;2023-05-28T14:40:49;24.40;93.60
44900;DHT22;30628;51.188;6.770;2023-05-28T14:43:16;24.40;93.90
44900;DHT22;30628;51.188;6.770;2023-05-28T14:45:42;24.50;92.80
44900;DHT22;30628;51.188;6.770;2023-05-28T14:48:08;24.40;93.40
44900;DHT22;30628;51.188;6.770;2023-05-28T14:50:34;24.40;93.70
44900;DHT22;30628;51.188;6.770;2023-05-28T14:53:00;24.40;93.30
44900;DHT22;30628;51.188;6.770;2023-05-28T14:55:26;24.50;93.20
44900;DHT22;30628;51.188;6.770;2023-05-28T14:57:52;24.40;93.30
44900;DHT22;30628;51.188;6.770;2023-05-28T15:00:19;24.40;93.60
44900;DHT22;30628;51.188;6.770;2023-05-28T15:02:45;24.40;94.00
44900;DHT22;30628;51.188;6.770;2023-05-28T15:05:11;24.40;93.10
44900;DHT22;30628;51.188;6.770;2023-05-28T15:07:37;24.40;94.00
44900;DHT22;30628;51.188;6.770;2023-05-28T15:10:05;24.40;92.90
44900;DHT22;30628;51.188;6.770;2023-05-28T15:12:31;24.40;93.40
44900;DHT22;30628;51.188;6.770;2023-05-28T15:14:57;24.40;92.80
44900;DHT22;30628;51.188;6.770;2023-05-28T15:17:23;24.40;93.40
44900;DHT22;30628;51.188;6.770;2023-05-28T15:19:50;24.40;93.00
44900;DHT22;30628;51.188;6.770;2023-05-28T15:22:16;24.40;93.10
44900;DHT22;30628;51.188;6.770;2023-05-28T15:24:43;24.30;92.90
44900;DHT22;30628;51.188;6.770;2023-05-28T15:27:09;24.30;93.10
44900;DHT22;30628;51.188;6.770;2023-05-28T15:29:36;24.40;93.80
44900;DHT22;30628;51.188;6.770;2023-05-28T15:32:03;24.40;92.90
44900;DHT22;30628;51.188;6.770;2023-05-28T15:34:29;24.40;93.20
44900;DHT22;30628;51.188;6.770;2023-05-28T15:36:56;24.30;93.40
44900;DHT22;30628;51.188;6.770;2023-05-28T15:39:22;24.20;94.50
44900;DHT22;30628;51.188;6.770;2023-05-28T15:41:51;24.30;93.80
44900;DHT22;30628;51.188;6.770;2023-05-28T15:44:17;24.40;93.60
44900;DHT22;30628;51.188;6.770;2023-05-28T15:46:44;24.50;94.00
44900;DHT22;30628;51.188;6.770;2023-05-28T15:49:10;24.50;93.20
44900;DHT22;30628;51.188;6.770;2023-05-28T15:51:36;24.30;92.90